createdAt,value
2023-05-23T00:02:13.131Z,100293.16
2023-05-23T00:05:12.520Z,100289.08
2023-05-23T00:08:22.048Z,100290.42
2023-05-23T00:11:32.895Z,100284.96
2023-05-23T00:18:22.306Z,100280.19
2023-05-23T00:21:24.005Z,100281.66
2023-05-23T00:24:50.827Z,100284.31
2023-05-23T00:27:55.007Z,100277.14
2023-05-23T00:30:37.499Z,100278.73
2023-05-23T00:33:45.358Z,100279.89
2023-05-23T00:39:42.606Z,100284.75
2023-05-23T00:42:41.421Z,100283.10
2023-05-23T00:45:32.843Z,100284.96
2023-05-23T00:48:24.774Z,100284.21
2023-05-23T00:51:09.042Z,100288.02
2023-05-23T00:57:12.483Z,100292.02
2023-05-23T01:03:28.317Z,100288.27
2023-05-23T01:06:44.022Z,100286.45
2023-05-23T01:09:43.526Z,100277.83
2023-05-23T01:13:25.806Z,100282.66
2023-05-23T01:17:05.288Z,100281.09
2023-05-23T01:20:19.009Z,100284.84
2023-05-23T01:24:01.146Z,100281.95
2023-05-23T01:27:19.207Z,100278.52
2023-05-23T01:30:41.330Z,100273.64
2023-05-23T01:33:30.137Z,100270.34
2023-05-23T01:36:36.704Z,100268.73
2023-05-23T01:39:24.451Z,100262.32
2023-05-23T01:45:47.438Z,100256.39
2023-05-23T01:49:16.173Z,100252.98
2023-05-23T01:52:00.751Z,100250.23
2023-05-23T01:54:44.638Z,100253.69
2023-05-23T01:57:36.137Z,100251.71
2023-05-23T02:00:18.852Z,100249.48
2023-05-23T02:02:54.798Z,100249.95
2023-05-23T02:05:33.274Z,100243.89
2023-05-23T02:08:34.691Z,100240.59
2023-05-23T02:11:50.396Z,100241.32
2023-05-23T02:14:33.994Z,100242.13
2023-05-23T02:17:18.115Z,100244.79
2023-05-23T02:19:51.781Z,100242.22
2023-05-23T02:22:40.729Z,100239.64
2023-05-23T02:25:25.145Z,100232.70
2023-05-23T02:28:33.168Z,100231.69
2023-05-23T02:31:16.661Z,100225.56
2023-05-23T02:34:00.605Z,100225.76
2023-05-23T02:36:57.163Z,100221.55
2023-05-23T02:39:37.014Z,100220.50
2023-05-23T02:42:11.426Z,100213.30
2023-05-23T02:45:01.829Z,100217.46
2023-05-23T02:47:45.771Z,100215.52
2023-05-23T02:50:23.035Z,100212.38
2023-05-23T02:53:20.625Z,100211.20
2023-05-23T02:55:59.559Z,100207.02
2023-05-23T03:01:46.823Z,100204.20
2023-05-23T03:04:57.687Z,100202.79
2023-05-23T03:08:22.349Z,100197.22
2023-05-23T03:10:58.812Z,100195.00
2023-05-23T03:13:54.038Z,100196.08
2023-05-23T03:16:57.988Z,100190.67
2023-05-23T03:20:05.518Z,100192.04
2023-05-23T03:22:58.515Z,100192.41
2023-05-23T03:25:34.377Z,100196.21
2023-05-23T03:28:48.453Z,100196.20
2023-05-23T03:31:52.042Z,100196.63
2023-05-23T03:34:41.589Z,100195.37
2023-05-23T03:37:18.603Z,100197.10
2023-05-23T03:40:05.165Z,100196.15
2023-05-23T03:43:17.432Z,100195.32
2023-05-23T03:46:14.484Z,100192.45
2023-05-23T03:48:57.448Z,100194.13
2023-05-23T03:51:43.383Z,100193.08
2023-05-23T03:54:29.875Z,100190.34
2023-05-23T03:57:21.057Z,100188.77
2023-05-23T04:00:23.950Z,100191.66
2023-05-23T04:03:17.650Z,100184.04
2023-05-23T04:06:06.421Z,100184.45
2023-05-23T04:08:57.081Z,100181.80
2023-05-23T04:11:44.096Z,100184.36
2023-05-23T04:14:35.404Z,100180.95
2023-05-23T04:17:46.648Z,100178.84
2023-05-23T04:20:42.944Z,100181.82
2023-05-23T04:23:23.922Z,100177.12
2023-05-23T04:26:10.859Z,100179.69
2023-05-23T04:28:59.788Z,100177.41
2023-05-23T04:32:18.062Z,100176.95
2023-05-23T04:35:00.480Z,100175.00
2023-05-23T04:37:53.179Z,100176.71
2023-05-23T04:40:43.460Z,100176.16
2023-05-23T04:44:16.153Z,100179.08
2023-05-23T04:47:16.672Z,100173.48
2023-05-23T04:50:18.336Z,100170.37
2023-05-23T04:52:54.597Z,100165.16
2023-05-23T04:55:37.171Z,100164.70
2023-05-23T04:58:24.126Z,100161.91
2023-05-23T05:01:24.524Z,100162.59
2023-05-23T05:04:16.445Z,100163.61
2023-05-23T05:06:55.286Z,100161.31
2023-05-23T05:09:39.330Z,100157.91
2023-05-23T05:12:09.860Z,100158.30
2023-05-23T05:14:50.590Z,100158.80
2023-05-23T05:17:26.574Z,100155.16
2023-05-23T05:20:19.208Z,100150.19
2023-05-23T05:23:23.716Z,100143.55
2023-05-23T05:26:14.011Z,100135.94
2023-05-23T05:28:51.506Z,100133.50
2023-05-23T05:31:27.170Z,100128.69
2023-05-23T05:37:37.510Z,100118.77
2023-05-23T05:40:23.130Z,100123.98
2023-05-23T05:43:04.067Z,100122.21
2023-05-23T05:48:43.215Z,100124.20
2023-05-23T05:51:26.637Z,100127.55
2023-05-23T05:54:19.795Z,100123.43
2023-05-23T05:57:00.150Z,100125.64
2023-05-23T06:00:01.424Z,100113.40
2023-05-23T06:02:49.424Z,100110.83
2023-05-23T06:05:39.533Z,100105.56
2023-05-23T06:08:18.025Z,100105.89
2023-05-23T06:11:32.498Z,100111.95
2023-05-23T06:14:22.076Z,100109.83
2023-05-23T06:17:17.469Z,100112.80
2023-05-23T06:20:12.133Z,100108.05
2023-05-23T06:23:07.199Z,100108.85
2023-05-23T06:25:42.174Z,100107.94
2023-05-23T06:28:36.500Z,100110.95
2023-05-23T06:31:06.542Z,100109.52
2023-05-23T06:36:40.064Z,100102.71
2023-05-23T06:39:21.397Z,100097.36
2023-05-23T06:42:40.919Z,100100.40
2023-05-23T06:45:23.423Z,100101.54
2023-05-23T06:48:03.764Z,100101.07
2023-05-23T06:50:49.671Z,100101.75
2023-05-23T06:53:20.083Z,100099.81
2023-05-23T06:56:02.168Z,100097.02
2023-05-23T06:58:41.769Z,100092.47
2023-05-23T07:01:25.459Z,100088.41
2023-05-23T07:03:56.565Z,100083.11
2023-05-23T07:06:36.748Z,100078.98
2023-05-23T07:09:11.859Z,100076.27
2023-05-23T07:11:47.882Z,100074.52
2023-05-23T07:14:27.699Z,100071.51
2023-05-23T07:17:18.631Z,100066.73
2023-05-23T07:19:59.740Z,100067.05
2023-05-23T07:22:41.752Z,100062.52
2023-05-23T07:25:23.048Z,100062.64
2023-05-23T07:27:57.436Z,100063.30
2023-05-23T07:30:47.125Z,100064.17
2023-05-23T07:33:23.005Z,100061.92
2023-05-23T07:35:56.734Z,100062.14
2023-05-23T07:38:44.777Z,100062.27
2023-05-23T07:41:25.727Z,100063.45
2023-05-23T07:43:56.408Z,100061.34
2023-05-23T07:46:35.517Z,100052.88
2023-05-23T07:49:13.961Z,100052.04
2023-05-23T07:52:04.987Z,100046.11
2023-05-23T07:54:44.964Z,100038.92
2023-05-23T07:57:19.287Z,100043.81
2023-05-23T07:59:53.977Z,100045.01
2023-05-23T08:02:34.680Z,100046.67
2023-05-23T08:05:13.322Z,100048.17
2023-05-23T08:08:04.402Z,100043.55
2023-05-23T08:10:44.214Z,100045.20
2023-05-23T08:13:18.344Z,100037.65
2023-05-23T08:19:16.301Z,100032.39
2023-05-23T08:21:59.063Z,100030.54
2023-05-23T08:24:36.010Z,100039.64
2023-05-23T08:27:15.447Z,100036.35
2023-05-23T08:29:50.256Z,100032.37
2023-05-23T08:32:22.369Z,100031.52
2023-05-23T08:34:52.770Z,100028.45
2023-05-23T08:37:31.046Z,100027.11
2023-05-23T08:40:23.426Z,100021.86
2023-05-23T08:43:23.730Z,100021.36
2023-05-23T08:46:01.961Z,100022.43
2023-05-23T08:48:44.765Z,100019.20
2023-05-23T08:51:25.388Z,100023.27
2023-05-23T08:54:24.961Z,100022.27
2023-05-23T08:57:30.675Z,100026.48
2023-05-23T09:00:17.803Z,100025.27
2023-05-23T09:02:49.626Z,100025.95
2023-05-23T09:05:50.932Z,100025.55
2023-05-23T09:08:31.374Z,100019.71
2023-05-23T09:11:13.041Z,100021.14
2023-05-23T09:14:32.552Z,100018.27
2023-05-23T09:17:36.681Z,100019.98
2023-05-23T09:20:16.947Z,100017.70
2023-05-23T09:23:11.766Z,100021.67
2023-05-23T09:26:00.634Z,100020.05
2023-05-23T09:28:42.417Z,100022.40
2023-05-23T09:31:25.104Z,100022.95
2023-05-23T09:34:06.583Z,100020.88
2023-05-23T09:37:09.768Z,100020.51
2023-05-23T09:39:49.267Z,100026.77
2023-05-23T09:42:44.029Z,100022.11
2023-05-23T09:45:37.178Z,100018.85
2023-05-23T09:48:15.466Z,100020.54
2023-05-23T09:50:58.203Z,100017.30
2023-05-23T09:53:33.679Z,100018.12
2023-05-23T09:56:18.151Z,100016.64
2023-05-23T09:59:35.817Z,100017.70
2023-05-23T10:02:45.619Z,100017.48
2023-05-23T10:06:12.859Z,100013.59
2023-05-23T10:08:54.619Z,100015.27
2023-05-23T10:11:36.065Z,100009.20
2023-05-23T10:14:16.677Z,100009.23
2023-05-23T10:17:06.683Z,99999.84
2023-05-23T10:19:53.433Z,100002.64
2023-05-23T10:22:29.554Z,100002.88
2023-05-23T10:25:05.434Z,100006.66
2023-05-23T10:27:56.531Z,100003.72
2023-05-23T10:30:39.578Z,100000.30
2023-05-23T10:33:13.930Z,99994.23
2023-05-23T10:36:12.826Z,99990.66
2023-05-23T10:39:25.669Z,99991.01
2023-05-23T10:42:15.281Z,99990.02
2023-05-23T10:44:53.158Z,99989.09
2023-05-23T10:47:33.928Z,99991.52
2023-05-23T10:50:22.009Z,99987.31
2023-05-23T10:53:00.071Z,99987.46
2023-05-23T10:55:43.056Z,99984.29
2023-05-23T10:58:25.763Z,99986.99
2023-05-23T11:01:13.607Z,99980.32
2023-05-23T11:03:52.917Z,99976.30
2023-05-23T11:06:49.930Z,99979.74
2023-05-23T11:09:26.324Z,99980.11
2023-05-23T11:12:09.462Z,99974.21
2023-05-23T11:14:52.493Z,99975.03
2023-05-23T11:17:53.324Z,99975.42
2023-05-23T11:20:33.422Z,99971.98
2023-05-23T11:23:24.782Z,99966.00
2023-05-23T11:25:56.748Z,99965.54
2023-05-23T11:29:00.518Z,99965.95
2023-05-23T11:31:44.422Z,99964.65
2023-05-23T11:34:31.707Z,99958.26
2023-05-23T11:37:11.786Z,99955.52
2023-05-23T11:39:56.703Z,99958.00
2023-05-23T11:42:30.621Z,99957.35
2023-05-23T11:45:12.492Z,99955.84
2023-05-23T11:48:06.466Z,99960.31
2023-05-23T11:51:19.750Z,99957.36
2023-05-23T11:54:04.323Z,99960.14
2023-05-23T11:56:40.758Z,99957.27
2023-05-23T11:59:16.323Z,99959.85
2023-05-23T12:01:58.346Z,99959.86
2023-05-23T12:04:42.256Z,99961.25
2023-05-23T12:07:34.045Z,99955.95
2023-05-23T12:10:19.899Z,99958.88
2023-05-23T12:12:53.662Z,99960.07
2023-05-23T12:15:36.602Z,99956.93
2023-05-23T12:18:09.127Z,99959.71
2023-05-23T12:20:42.385Z,99959.55
2023-05-23T12:23:33.056Z,99962.13
2023-05-23T12:26:10.408Z,99956.38
2023-05-23T12:28:54.809Z,99950.17
2023-05-23T12:31:26.244Z,99950.95
2023-05-23T12:33:59.709Z,99947.98
2023-05-23T12:37:19.728Z,99946.23
2023-05-23T12:39:52.704Z,99946.40
2023-05-23T12:42:22.704Z,99946.30
2023-05-23T12:44:54.471Z,99944.49
2023-05-23T12:47:30.154Z,99950.63
2023-05-23T12:50:00.072Z,99949.92
2023-05-23T12:52:45.423Z,99946.30
2023-05-23T12:55:16.951Z,99943.80
2023-05-23T12:57:55.686Z,99944.86
2023-05-23T13:00:26.920Z,99943.48
2023-05-23T13:02:56.960Z,99943.98
2023-05-23T13:05:27.554Z,99945.73
2023-05-23T13:08:01.904Z,99939.93
2023-05-23T13:10:37.219Z,99941.02
2023-05-23T13:13:11.225Z,99936.14
2023-05-23T13:15:43.234Z,99935.45
2023-05-23T13:19:37.584Z,99935.27
2023-05-23T13:25:30.133Z,99931.80
2023-05-23T13:28:01.313Z,99929.14
2023-05-23T13:30:45.821Z,99930.25
2023-05-23T13:33:22.281Z,99930.23
2023-05-23T13:35:52.661Z,99930.58
2023-05-23T13:38:26.048Z,99934.60
2023-05-23T13:40:56.231Z,99939.06
2023-05-23T13:43:28.342Z,99952.03
2023-05-23T13:46:02.876Z,99952.30
2023-05-23T13:48:34.593Z,99950.97
2023-05-23T13:51:04.005Z,99948.77
2023-05-23T13:53:33.913Z,99948.10
2023-05-23T13:56:06.309Z,99953.31
2023-05-23T13:58:35.316Z,99954.54
2023-05-23T14:01:04.696Z,99953.90
2023-05-23T14:04:07.900Z,99955.95
2023-05-23T14:07:21.099Z,99956.91
2023-05-23T14:10:21.736Z,99959.64
2023-05-23T14:12:54.213Z,99958.35
2023-05-23T14:15:24.722Z,99958.41
2023-05-23T14:17:58.606Z,99955.88
2023-05-23T14:20:29.267Z,99957.98
2023-05-23T14:23:10.786Z,99961.29
2023-05-23T14:25:44.889Z,99962.14
2023-05-23T14:28:16.827Z,99959.96
2023-05-23T14:30:49.722Z,99965.08
2023-05-23T14:33:19.985Z,99963.63
2023-05-23T14:35:50.882Z,99964.07
2023-05-23T14:41:23.073Z,99964.14
2023-05-23T14:44:00.217Z,99964.70
2023-05-23T14:46:37.717Z,99963.39
2023-05-23T14:49:29.948Z,99968.11
2023-05-23T14:52:00.201Z,99965.94
2023-05-23T14:57:49.349Z,99961.08
2023-05-23T15:00:26.027Z,99962.27
2023-05-23T15:03:10.663Z,99962.77
2023-05-23T15:05:49.023Z,99961.04
2023-05-23T15:08:45.025Z,99962.16
2023-05-23T15:11:32.961Z,99961.58
2023-05-23T15:14:10.466Z,99963.98
2023-05-23T15:16:44.658Z,99957.91
2023-05-23T15:19:36.553Z,99956.66
2023-05-23T15:22:11.175Z,99957.07
2023-05-23T15:24:47.441Z,99957.33
2023-05-23T15:27:22.305Z,99956.64
2023-05-23T15:29:55.454Z,99960.30
2023-05-23T15:33:48.794Z,99960.27
2023-05-23T15:39:50.243Z,99968.85
2023-05-23T15:42:36.764Z,99967.02
2023-05-23T15:45:42.774Z,99963.52
2023-05-23T15:48:53.569Z,99967.51
2023-05-23T15:51:34.280Z,99967.26
2023-05-23T15:54:11.877Z,99968.45
2023-05-23T15:57:04.608Z,99966.92
2023-05-23T15:59:43.780Z,99963.58
2023-05-23T16:02:42.953Z,99957.13
2023-05-23T16:05:28.183Z,99954.13
2023-05-23T16:08:06.359Z,99947.10
2023-05-23T16:10:51.648Z,99944.20
2023-05-23T16:13:41.177Z,99939.30
2023-05-23T16:16:22.183Z,99940.17
2023-05-23T16:19:01.130Z,99944.91
2023-05-23T16:21:44.137Z,99949.23
2023-05-23T16:24:40.096Z,99952.27
2023-05-23T16:27:14.144Z,99955.23
2023-05-23T16:29:48.981Z,99959.63
2023-05-23T16:33:05.270Z,99959.35
2023-05-23T16:35:50.197Z,99958.17
2023-05-23T16:38:35.844Z,99953.48
2023-05-23T16:41:13.449Z,99955.27
2023-05-23T16:44:42.480Z,99948.28
2023-05-23T16:47:27.354Z,99951.49
2023-05-23T16:50:16.590Z,99958.86
2023-05-23T16:53:15.141Z,99953.64
2023-05-23T16:56:31.337Z,99951.56
2023-05-23T16:59:17.713Z,99958.38
2023-05-23T17:02:12.371Z,99956.61
2023-05-23T17:05:00.111Z,99953.35
2023-05-23T17:08:00.510Z,99949.40
2023-05-23T17:11:07.865Z,99942.45
2023-05-23T17:14:45.361Z,99941.36
2023-05-23T17:17:26.451Z,99941.21
2023-05-23T17:20:09.488Z,99944.92
2023-05-23T17:23:07.584Z,99952.02
2023-05-23T17:26:07.936Z,99957.00
2023-05-23T17:29:02.958Z,99956.33
2023-05-23T17:32:05.957Z,99957.42
2023-05-23T17:34:59.844Z,99955.66
2023-05-23T17:37:45.324Z,99953.83
2023-05-23T17:40:42.130Z,99954.61
2023-05-23T17:47:40.048Z,99954.08
2023-05-23T17:50:41.607Z,99952.70
2023-05-23T17:56:58.728Z,99950.46
2023-05-23T17:59:45.206Z,99950.03
2023-05-23T18:03:40.315Z,99953.14
2023-05-23T18:06:37.195Z,99950.10
2023-05-23T18:09:28.049Z,99951.29
2023-05-23T18:12:56.769Z,99952.95
2023-05-23T18:16:21.207Z,99954.32
2023-05-23T18:19:33.288Z,99963.67
2023-05-23T18:22:52.556Z,99967.63
2023-05-23T18:25:40.187Z,99971.91
2023-05-23T18:28:34.685Z,99972.90
2023-05-23T18:31:25.436Z,99974.15
2023-05-23T18:34:40.490Z,99965.13
2023-05-23T18:37:50.830Z,99974.79
2023-05-23T18:41:04.267Z,99986.70
2023-05-23T18:44:18.636Z,99992.61
2023-05-23T18:52:09.844Z,99999.52
2023-05-23T18:55:26.912Z,100001.45
2023-05-23T18:58:16.373Z,100011.86
2023-05-23T19:01:30.512Z,100017.83
2023-05-23T19:04:09.630Z,100020.11
2023-05-23T19:07:08.801Z,100023.27
2023-05-23T19:10:30.532Z,100029.54
2023-05-23T19:13:04.329Z,100041.16
2023-05-23T19:19:45.460Z,100049.96
2023-05-23T19:25:50.707Z,100052.61
2023-05-23T19:29:05.256Z,100045.39
2023-05-23T19:32:10.086Z,100043.16
2023-05-23T19:35:09.623Z,100048.28
2023-05-23T19:38:28.363Z,100045.92
2023-05-23T19:41:29.092Z,100047.08
2023-05-23T19:44:27.267Z,100053.92
2023-05-23T19:47:13.379Z,100054.52
2023-05-23T19:50:09.506Z,100055.76
2023-05-23T19:53:31.451Z,100052.10
2023-05-23T19:56:19.757Z,100053.86
2023-05-23T20:03:09.447Z,100057.29
2023-05-23T20:05:51.965Z,100053.08
2023-05-23T20:08:48.160Z,100056.83
2023-05-23T20:11:57.441Z,100053.88
2023-05-23T20:14:59.774Z,100055.22
2023-05-23T20:17:52.508Z,100055.20
2023-05-23T20:20:34.772Z,100059.28
2023-05-23T20:23:33.954Z,100062.45
2023-05-23T20:26:23.559Z,100063.34
2023-05-23T20:29:50.406Z,100064.20
2023-05-23T20:32:26.277Z,100059.77
2023-05-23T20:43:05.006Z,100070.24
2023-05-23T20:48:07.667Z,100070.61
2023-05-23T21:39:50.617Z,100100.23
2023-05-23T21:42:54.994Z,100107.48
2023-05-23T21:52:49.804Z,100108.89
2023-05-23T21:55:31.720Z,100105.34
2023-05-23T22:02:33.341Z,100120.19
2023-05-23T22:05:10.858Z,100124.14
2023-05-23T22:08:06.009Z,100124.35
2023-05-23T22:10:44.739Z,100125.78
2023-05-23T22:13:19.962Z,100128.61
2023-05-23T22:21:18.300Z,100127.52
2023-05-23T22:24:11.033Z,100129.88
2023-05-23T22:26:43.297Z,100127.01
2023-05-23T22:29:27.169Z,100121.98
2023-05-23T22:32:07.081Z,100123.67
2023-05-23T22:34:51.713Z,100122.66
2023-05-23T22:38:00.244Z,100125.21
2023-05-23T22:40:34.176Z,100126.73
2023-05-23T22:43:17.740Z,100130.61
2023-05-23T22:45:59.794Z,100130.44
2023-05-23T22:48:54.279Z,100127.59
2023-05-23T22:51:34.238Z,100125.75
2023-05-23T22:54:04.399Z,100121.06
2023-05-23T22:56:38.502Z,100123.35
2023-05-23T22:59:33.383Z,100119.89
2023-05-23T23:02:06.366Z,100122.08
2023-05-23T23:04:41.793Z,100125.95
2023-05-23T23:07:26.660Z,100123.52
2023-05-23T23:09:59.249Z,100123.78
2023-05-23T23:12:32.105Z,100125.57
2023-05-23T23:15:02.536Z,100123.05
2023-05-23T23:18:18.873Z,100120.02
2023-05-23T23:21:05.763Z,100118.79
2023-05-23T23:23:47.665Z,100115.17
2023-05-23T23:26:32.519Z,100115.85
2023-05-23T23:29:16.984Z,100117.81
2023-05-23T23:31:55.700Z,100114.27
2023-05-23T23:34:27.651Z,100109.48
2023-05-23T23:36:57.568Z,100113.21
2023-05-23T23:39:26.988Z,100111.77
2023-05-23T23:41:56.573Z,100110.79
2023-05-23T23:44:29.663Z,100112.66
2023-05-23T23:47:10.887Z,100111.39
2023-05-23T23:49:40.445Z,100106.00
2023-05-23T23:52:12.742Z,100119.46
2023-05-23T23:54:43.265Z,100114.83
2023-05-23T23:57:17.392Z,100113.81
2023-05-23T23:59:53.835Z,100112.73
